createdAt,value
2018-09-02T00:01:50.259Z,11.50
2018-09-02T00:04:18.399Z,11.42
2018-09-02T00:06:46.504Z,11.49
2018-09-02T00:09:14.626Z,11.43
2018-09-02T00:11:42.765Z,11.48
2018-09-02T00:14:10.891Z,11.47
2018-09-02T00:16:38.982Z,11.41
2018-09-02T00:19:07.063Z,11.39
2018-09-02T00:21:35.230Z,11.47
2018-09-02T00:24:03.355Z,11.49
2018-09-02T00:26:31.479Z,11.54
2018-09-02T00:28:59.575Z,11.58
2018-09-02T00:31:27.724Z,11.50
2018-09-02T00:33:55.931Z,11.37
2018-09-02T00:36:24.012Z,11.38
2018-09-02T00:38:52.126Z,11.32
2018-09-02T00:41:20.250Z,11.37
2018-09-02T00:48:48.752Z,11.52
2018-09-02T00:51:16.836Z,11.63
2018-09-02T00:53:44.988Z,11.58
2018-09-02T00:56:13.160Z,11.60
2018-09-02T00:58:41.240Z,11.57
2018-09-02T01:01:09.380Z,11.45
2018-09-02T01:03:37.521Z,11.36
2018-09-02T01:06:05.856Z,11.39
2018-09-02T01:08:33.973Z,11.46
2018-09-02T01:11:02.107Z,11.31
2018-09-02T01:13:30.215Z,11.23
2018-09-02T01:15:58.319Z,11.27
2018-09-02T01:18:26.444Z,11.29
2018-09-02T01:20:54.574Z,11.25
2018-09-02T01:23:22.731Z,11.12
2018-09-02T01:25:50.891Z,11.11
2018-09-02T01:28:19.071Z,11.10
2018-09-02T01:30:47.171Z,11.04
2018-09-02T01:33:15.309Z,10.96
2018-09-02T01:35:43.417Z,11.07
2018-09-02T01:38:11.564Z,11.04
2018-09-02T01:40:39.707Z,11.02
2018-09-02T01:43:07.802Z,10.91
2018-09-02T01:45:35.913Z,10.83
2018-09-02T01:48:04.139Z,10.66
2018-09-02T01:50:32.295Z,10.65
2018-09-02T01:53:00.387Z,10.67
2018-09-02T01:55:28.527Z,10.74
2018-09-02T01:57:56.638Z,10.66
2018-09-02T02:00:24.781Z,10.56
2018-09-02T02:02:52.860Z,10.57
2018-09-02T02:05:20.985Z,10.47
2018-09-02T02:07:49.147Z,10.46
2018-09-02T02:10:17.293Z,10.47
2018-09-02T02:12:45.420Z,10.41
2018-09-02T02:15:13.539Z,10.41
2018-09-02T02:17:41.666Z,10.41
2018-09-02T02:20:09.764Z,10.38
2018-09-02T02:22:37.887Z,10.32
2018-09-02T02:25:05.999Z,10.38
2018-09-02T02:27:34.090Z,10.52
2018-09-02T02:30:02.251Z,10.49
2018-09-02T02:32:30.345Z,10.52
2018-09-02T02:34:58.436Z,10.54
2018-09-02T02:37:26.559Z,10.53
2018-09-02T02:39:54.689Z,10.45
2018-09-02T02:42:22.804Z,10.55
2018-09-02T02:44:50.951Z,10.50
2018-09-02T02:47:19.034Z,10.49
2018-09-02T02:49:47.177Z,10.54
2018-09-02T02:52:16.189Z,10.55
2018-09-02T02:54:44.324Z,10.49
2018-09-02T02:57:12.510Z,10.44
2018-09-02T02:59:40.665Z,10.42
2018-09-02T03:02:08.820Z,10.57
2018-09-02T03:04:39.872Z,10.42
2018-09-02T03:07:07.975Z,10.35
2018-09-02T03:09:36.093Z,10.31
2018-09-02T03:12:04.186Z,10.32
2018-09-02T03:14:32.285Z,10.29
2018-09-02T03:17:00.448Z,10.32
2018-09-02T03:19:28.556Z,10.30
2018-09-02T03:22:03.426Z,10.27
2018-09-02T03:24:31.558Z,10.24
2018-09-02T03:26:59.619Z,10.15
2018-09-02T03:29:27.744Z,10.08
2018-09-02T03:31:55.841Z,10.07
2018-09-02T03:34:23.948Z,10.05
2018-09-02T03:36:52.055Z,9.99
2018-09-02T03:39:20.184Z,10.02
2018-09-02T03:41:48.291Z,10.08
2018-09-02T03:44:16.413Z,9.97
2018-09-02T03:46:44.523Z,9.95
2018-09-02T03:49:12.643Z,9.90
2018-09-02T03:51:40.840Z,9.92
2018-09-02T03:54:08.978Z,9.95
2018-09-02T03:56:37.067Z,9.98
2018-09-02T03:59:05.233Z,10.00
2018-09-02T04:01:33.316Z,9.95
2018-09-02T04:04:01.467Z,9.95
2018-09-02T04:06:29.558Z,9.94
2018-09-02T04:08:57.685Z,9.99
2018-09-02T04:11:25.979Z,9.99
2018-09-02T04:13:54.032Z,9.98
2018-09-02T04:16:22.111Z,9.98
2018-09-02T04:18:50.236Z,9.98
2018-09-02T04:21:18.350Z,9.96
2018-09-02T04:23:47.019Z,9.97
2018-09-02T04:26:15.152Z,10.05
2018-09-02T04:28:43.248Z,10.10
2018-09-02T04:31:11.372Z,9.86
2018-09-02T04:33:39.566Z,9.75
2018-09-02T04:36:07.608Z,9.79
2018-09-02T04:38:35.702Z,9.78
2018-09-02T04:41:03.829Z,9.75
2018-09-02T04:43:31.952Z,9.72
2018-09-02T04:46:00.048Z,9.67
2018-09-02T04:48:28.151Z,9.69
2018-09-02T04:50:56.275Z,9.77
2018-09-02T04:53:24.357Z,9.89
2018-09-02T04:55:52.470Z,9.88
2018-09-02T04:58:20.563Z,9.98
2018-09-02T05:00:48.635Z,9.83
2018-09-02T05:03:16.751Z,9.75
2018-09-02T05:05:44.874Z,9.66
2018-09-02T05:08:13.000Z,9.87
2018-09-02T05:10:41.121Z,9.90
2018-09-02T05:13:09.235Z,10.03
2018-09-02T05:15:37.364Z,10.05
2018-09-02T05:18:05.515Z,10.16
2018-09-02T05:20:33.599Z,10.26
2018-09-02T05:23:01.731Z,10.32
2018-09-02T05:25:29.864Z,10.30
2018-09-02T05:27:57.960Z,10.34
2018-09-02T05:30:26.063Z,10.46
2018-09-02T05:32:54.171Z,10.65
2018-09-02T05:35:22.299Z,10.57
2018-09-02T05:37:50.407Z,10.58
2018-09-02T05:40:18.529Z,10.88
2018-09-02T05:42:46.672Z,11.06
2018-09-02T05:45:14.795Z,11.13
2018-09-02T05:47:42.908Z,11.10
2018-09-02T05:50:11.008Z,11.25
2018-09-02T05:52:39.133Z,11.45
2018-09-02T05:55:07.392Z,11.59
2018-09-02T05:57:35.666Z,11.71
2018-09-02T06:00:03.837Z,11.85
2018-09-02T06:02:31.951Z,11.95
2018-09-02T06:05:00.021Z,12.08
2018-09-02T06:07:28.142Z,12.22
2018-09-02T06:09:56.776Z,12.30
2018-09-02T06:12:24.908Z,12.41
2018-09-02T06:14:52.996Z,12.64
2018-09-02T06:17:21.214Z,12.80
2018-09-02T06:19:49.216Z,12.95
2018-09-02T06:22:17.304Z,13.09
2018-09-02T06:24:45.391Z,13.16
2018-09-02T06:27:13.544Z,13.28
2018-09-02T06:29:42.211Z,13.42
2018-09-02T06:32:10.342Z,13.52
2018-09-02T06:34:38.450Z,13.72
2018-09-02T06:37:06.575Z,13.91
2018-09-02T06:39:34.679Z,14.05
2018-09-02T06:42:02.781Z,14.15
2018-09-02T06:44:30.894Z,14.26
2018-09-02T06:46:59.011Z,14.51
2018-09-02T06:49:27.132Z,14.47
2018-09-02T06:51:55.287Z,14.60
2018-09-02T06:54:23.575Z,14.83
2018-09-02T06:56:51.709Z,14.96
2018-09-02T06:59:19.815Z,15.07
2018-09-02T07:01:47.954Z,15.14
2018-09-02T07:04:16.124Z,15.30
2018-09-02T07:06:44.319Z,15.50
2018-09-02T07:09:12.406Z,15.59
2018-09-02T07:11:40.536Z,15.81
2018-09-02T07:14:08.659Z,15.88
2018-09-02T07:16:36.781Z,16.03
2018-09-02T07:19:04.909Z,16.27
2018-09-02T07:21:33.054Z,16.32
2018-09-02T07:24:01.209Z,16.21
2018-09-02T07:26:29.317Z,16.26
2018-09-02T07:28:57.403Z,16.41
2018-09-02T07:31:25.583Z,16.59
2018-09-02T07:33:54.252Z,16.54
2018-09-02T07:36:22.367Z,16.65
2018-09-02T07:38:50.469Z,16.93
2018-09-02T07:41:18.599Z,16.89
2018-09-02T07:43:46.749Z,16.95
2018-09-02T07:46:14.854Z,16.94
2018-09-02T07:48:42.956Z,17.26
2018-09-02T07:51:11.075Z,17.25
2018-09-02T07:53:39.196Z,17.40
2018-09-02T07:56:07.315Z,17.52
2018-09-02T07:58:35.449Z,17.48
2018-09-02T08:01:03.534Z,17.61
2018-09-02T08:03:31.656Z,17.63
2018-09-02T08:05:59.772Z,17.57
2018-09-02T08:08:27.918Z,17.54
2018-09-02T08:10:56.025Z,17.46
2018-09-02T08:13:24.170Z,17.80
2018-09-02T08:15:52.432Z,18.17
2018-09-02T08:18:20.531Z,18.39
2018-09-02T08:20:48.659Z,18.07
2018-09-02T08:23:16.733Z,17.89
2018-09-02T08:25:44.825Z,17.88
2018-09-02T08:28:13.954Z,17.76
2018-09-02T08:30:42.060Z,17.66
2018-09-02T08:33:10.263Z,17.73
2018-09-02T08:35:38.275Z,17.86
2018-09-02T08:38:06.370Z,17.78
2018-09-02T08:40:34.451Z,17.78
2018-09-02T08:43:02.552Z,17.59
2018-09-02T08:45:30.708Z,17.56
2018-09-02T08:47:58.877Z,17.77
2018-09-02T08:51:30.269Z,17.64
2018-09-02T08:53:58.377Z,17.74
2018-09-02T08:56:26.535Z,17.91
2018-09-02T08:58:54.710Z,17.99
2018-09-02T09:01:22.827Z,18.09
2018-09-02T09:03:51.303Z,17.92
2018-09-02T09:06:19.409Z,17.94
2018-09-02T09:08:47.909Z,17.87
2018-09-02T09:11:15.639Z,17.93
2018-09-02T09:13:43.731Z,17.86
2018-09-02T09:16:11.820Z,18.04
2018-09-02T09:18:39.929Z,18.11
2018-09-02T09:21:08.264Z,18.15
2018-09-02T09:23:36.378Z,18.17
2018-09-02T09:26:04.480Z,18.25
2018-09-02T09:28:32.578Z,18.49
2018-09-02T09:31:00.732Z,18.86
2018-09-02T09:33:28.903Z,19.14
2018-09-02T09:35:57.588Z,19.35
2018-09-02T09:38:25.687Z,19.47
2018-09-02T09:40:53.831Z,19.75
2018-09-02T09:43:21.975Z,19.81
2018-09-02T09:45:50.072Z,19.92
2018-09-02T09:48:18.165Z,19.84
2018-09-02T09:50:46.305Z,20.11
2018-09-02T09:53:14.362Z,20.33
2018-09-02T09:55:42.586Z,20.34
2018-09-02T09:58:10.619Z,20.15
2018-09-02T10:00:44.259Z,20.12
2018-09-02T10:03:12.403Z,19.98
2018-09-02T10:05:40.567Z,19.45
2018-09-02T10:08:08.648Z,19.14
2018-09-02T10:10:36.862Z,19.41
2018-09-02T10:13:05.205Z,19.58
2018-09-02T10:15:33.333Z,19.87
2018-09-02T10:18:01.623Z,20.13
2018-09-02T10:20:29.825Z,20.28
2018-09-02T10:22:57.913Z,20.48
2018-09-02T10:25:25.996Z,20.62
2018-09-02T10:27:54.087Z,20.57
2018-09-02T10:30:22.213Z,20.48
2018-09-02T10:32:50.364Z,20.72
2018-09-02T10:35:18.724Z,20.75
2018-09-02T10:37:46.951Z,20.87
2018-09-02T10:40:15.033Z,20.95
2018-09-02T10:42:43.139Z,20.71
2018-09-02T10:45:11.241Z,20.69
2018-09-02T10:47:39.339Z,20.43
2018-09-02T10:50:08.511Z,20.14
2018-09-02T10:52:36.676Z,20.40
2018-09-02T10:55:04.779Z,20.63
2018-09-02T10:57:32.921Z,20.88
2018-09-02T11:00:01.004Z,20.98
2018-09-02T11:02:29.111Z,21.08
2018-09-02T11:04:57.225Z,21.22
2018-09-02T11:07:25.349Z,21.47
2018-09-02T11:09:53.423Z,21.52
2018-09-02T11:12:21.582Z,21.70
2018-09-02T11:14:49.706Z,21.82
2018-09-02T11:17:17.811Z,21.53
2018-09-02T11:19:45.940Z,21.44
2018-09-02T11:22:14.029Z,21.46
2018-09-02T11:24:42.200Z,21.33
2018-09-02T11:27:10.288Z,21.19
2018-09-02T11:29:38.391Z,21.11
2018-09-02T11:32:06.593Z,20.93
2018-09-02T11:34:34.699Z,20.93
2018-09-02T11:37:02.915Z,20.94
2018-09-02T11:39:31.009Z,21.00
2018-09-02T11:41:59.087Z,21.06
2018-09-02T11:44:27.214Z,21.29
2018-09-02T11:46:55.362Z,21.42
2018-09-02T11:49:23.418Z,21.44
2018-09-02T11:51:51.546Z,21.46
2018-09-02T11:54:19.650Z,21.52
2018-09-02T11:56:47.775Z,21.40
2018-09-02T11:59:15.883Z,21.40
2018-09-02T12:01:43.991Z,21.29
2018-09-02T12:04:12.076Z,21.23
2018-09-02T12:06:40.239Z,21.28
2018-09-02T12:09:09.010Z,21.51
2018-09-02T12:11:37.645Z,21.69
2018-09-02T12:14:05.804Z,21.77
2018-09-02T12:16:33.969Z,21.74
2018-09-02T12:19:02.126Z,21.66
2018-09-02T12:21:30.248Z,21.71
2018-09-02T12:23:58.454Z,21.73
2018-09-02T12:26:26.568Z,21.68
2018-09-02T12:28:54.739Z,21.73
2018-09-02T12:31:22.902Z,21.94
2018-09-02T12:38:46.550Z,21.63
2018-09-02T12:41:14.658Z,21.66
2018-09-02T12:43:42.776Z,21.91
2018-09-02T12:46:10.930Z,22.15
2018-09-02T12:48:39.061Z,22.18
2018-09-02T12:51:07.211Z,22.04
2018-09-02T12:53:35.469Z,22.05
2018-09-02T12:56:03.607Z,22.02
2018-09-02T12:58:31.700Z,22.04
2018-09-02T13:01:06.582Z,22.10
2018-09-02T13:03:34.691Z,21.93
2018-09-02T13:06:02.817Z,21.78
2018-09-02T13:08:31.159Z,21.59
2018-09-02T13:10:59.278Z,21.48
2018-09-02T13:13:27.379Z,21.50
2018-09-02T13:15:55.534Z,21.32
2018-09-02T13:18:23.730Z,21.46
2018-09-02T13:20:51.864Z,21.66
2018-09-02T13:23:19.992Z,21.85
2018-09-02T13:25:48.120Z,22.13
2018-09-02T13:28:16.258Z,22.23
2018-09-02T13:30:44.377Z,22.43
2018-09-02T13:33:12.487Z,22.42
2018-09-02T13:35:40.599Z,22.59
2018-09-02T13:38:08.740Z,22.21
2018-09-02T13:40:36.837Z,21.90
2018-09-02T13:43:05.415Z,21.90
2018-09-02T13:45:33.514Z,21.97
2018-09-02T13:48:01.605Z,22.13
2018-09-02T13:50:29.918Z,22.13
2018-09-02T13:52:58.025Z,22.15
2018-09-02T13:55:26.115Z,22.28
2018-09-02T13:57:54.235Z,22.30
2018-09-02T14:00:22.318Z,22.42
2018-09-02T14:02:50.445Z,22.39
2018-09-02T14:05:18.519Z,22.71
2018-09-02T14:07:46.704Z,22.75
2018-09-02T14:10:14.914Z,22.27
2018-09-02T14:12:43.064Z,22.23
2018-09-02T14:15:11.186Z,22.25
2018-09-02T14:17:39.386Z,22.19
2018-09-02T14:20:07.485Z,22.13
2018-09-02T14:22:35.706Z,22.25
2018-09-02T14:25:03.814Z,22.36
2018-09-02T14:27:31.954Z,22.00
2018-09-02T14:30:00.079Z,21.83
2018-09-02T14:32:28.177Z,21.94
2018-09-02T14:34:56.337Z,22.16
2018-09-02T14:37:24.487Z,22.17
2018-09-02T14:39:52.632Z,22.31
2018-09-02T14:42:20.719Z,22.27
2018-09-02T14:44:48.834Z,22.24
2018-09-02T14:47:16.972Z,22.03
2018-09-02T14:49:45.076Z,22.05
2018-09-02T14:52:13.269Z,22.13
2018-09-02T14:54:41.455Z,22.32
2018-09-02T14:57:09.604Z,22.28
2018-09-02T14:59:37.861Z,22.25
2018-09-02T15:02:06.043Z,22.28
2018-09-02T15:04:34.208Z,22.08
2018-09-02T15:07:02.455Z,22.25
2018-09-02T15:09:30.649Z,22.14
2018-09-02T15:11:58.931Z,22.12
2018-09-02T15:14:27.175Z,21.70
2018-09-02T15:16:55.329Z,21.67
2018-09-02T15:19:23.581Z,21.75
2018-09-02T15:21:51.845Z,21.76
2018-09-02T15:24:20.205Z,21.80
2018-09-02T15:26:48.369Z,21.69
2018-09-02T15:29:16.499Z,21.60
2018-09-02T15:31:44.638Z,21.49
2018-09-02T15:34:12.773Z,21.53
2018-09-02T15:36:40.874Z,21.37
2018-09-02T15:39:10.138Z,21.33
2018-09-02T15:41:38.592Z,21.30
2018-09-02T15:44:06.998Z,21.34
2018-09-02T15:46:35.049Z,21.27
2018-09-02T15:49:03.171Z,21.12
2018-09-02T15:51:31.317Z,21.00
2018-09-02T15:53:59.414Z,20.96
2018-09-02T15:56:27.597Z,20.88
2018-09-02T15:58:55.720Z,20.81
2018-09-02T16:01:23.895Z,20.77
2018-09-02T16:03:52.098Z,20.82
2018-09-02T16:06:20.228Z,20.77
2018-09-02T16:08:48.401Z,20.66
2018-09-02T16:11:16.520Z,20.61
2018-09-02T16:13:44.641Z,20.64
2018-09-02T16:16:12.762Z,20.63
2018-09-02T16:18:40.889Z,20.67
2018-09-02T16:21:09.070Z,20.66
2018-09-02T16:23:37.180Z,20.59
2018-09-02T16:26:05.304Z,20.52
2018-09-02T16:28:33.459Z,20.53
2018-09-02T16:31:01.610Z,20.49
2018-09-02T16:33:29.740Z,20.39
2018-09-02T16:35:57.910Z,20.40
2018-09-02T16:38:25.991Z,20.43
2018-09-02T16:40:54.101Z,20.44
2018-09-02T16:43:22.173Z,20.38
2018-09-02T16:45:50.297Z,20.42
2018-09-02T16:48:18.511Z,20.45
2018-09-02T16:50:46.647Z,20.40
2018-09-02T16:53:14.882Z,20.39
2018-09-02T16:58:17.323Z,20.28
2018-09-02T17:00:45.483Z,20.32
2018-09-02T17:03:13.586Z,20.23
2018-09-02T17:05:41.772Z,20.28
2018-09-02T17:08:09.910Z,20.23
2018-09-02T17:10:37.988Z,20.19
2018-09-02T17:13:07.104Z,20.19
2018-09-02T17:15:35.240Z,20.20
2018-09-02T17:18:03.427Z,20.17
2018-09-02T17:20:38.077Z,20.07
2018-09-02T17:23:11.104Z,20.08
2018-09-02T17:25:39.599Z,20.02
2018-09-02T17:28:07.707Z,20.10
2018-09-02T17:30:36.204Z,20.00
2018-09-02T17:33:04.560Z,19.98
2018-09-02T17:35:32.622Z,19.94
2018-09-02T17:38:00.776Z,19.82
2018-09-02T17:40:28.907Z,19.86
2018-09-02T17:42:57.044Z,19.74
2018-09-02T17:45:25.199Z,19.70
2018-09-02T17:47:53.515Z,19.75
2018-09-02T17:50:21.724Z,19.76
2018-09-02T17:52:49.879Z,19.77
2018-09-02T17:55:18.014Z,19.73
2018-09-02T17:57:46.194Z,19.81
2018-09-02T18:00:19.584Z,19.77
2018-09-02T18:02:47.730Z,19.83
2018-09-02T18:05:16.131Z,19.65
2018-09-02T18:07:44.235Z,19.70
2018-09-02T18:10:12.447Z,19.69
2018-09-02T18:12:40.581Z,19.57
2018-09-02T18:15:08.692Z,19.44
2018-09-02T18:17:36.814Z,19.38
2018-09-02T18:20:05.010Z,19.38
2018-09-02T18:22:33.119Z,19.46
2018-09-02T18:25:01.270Z,19.34
2018-09-02T18:27:31.733Z,19.32
2018-09-02T18:30:00.023Z,19.21
2018-09-02T18:32:29.821Z,19.07
2018-09-02T18:34:58.788Z,19.02
2018-09-02T18:37:26.895Z,19.02
2018-09-02T18:39:55.784Z,19.02
2018-09-02T18:42:23.934Z,18.93
2018-09-02T18:44:52.072Z,19.02
2018-09-02T18:47:20.309Z,18.91
2018-09-02T18:49:48.470Z,18.85
2018-09-02T18:52:17.363Z,18.76
2018-09-02T18:54:45.511Z,18.62
2018-09-02T18:57:13.643Z,18.64
2018-09-02T18:59:41.746Z,18.57
2018-09-02T19:02:10.598Z,18.51
2018-09-02T19:04:38.767Z,18.57
2018-09-02T19:07:07.479Z,18.40
2018-09-02T19:09:35.749Z,18.46
2018-09-02T19:12:03.866Z,18.44
2018-09-02T19:14:32.055Z,18.46
2018-09-02T19:17:00.190Z,18.39
2018-09-02T19:19:28.299Z,18.29
2018-09-02T19:21:56.403Z,18.27
2018-09-02T19:24:24.667Z,18.26
2018-09-02T19:26:52.778Z,18.33
2018-09-02T19:29:20.935Z,18.34
2018-09-02T19:31:49.167Z,18.32
2018-09-02T19:34:17.288Z,18.21
2018-09-02T19:36:45.386Z,18.15
2018-09-02T19:39:13.473Z,18.17
2018-09-02T19:41:41.797Z,18.14
2018-09-02T19:44:09.915Z,18.09
2018-09-02T19:46:38.007Z,18.12
2018-09-02T19:49:06.608Z,18.03
2018-09-02T19:51:34.727Z,18.02
2018-09-02T19:54:02.943Z,17.94
2018-09-02T19:56:31.002Z,17.98
2018-09-02T19:58:59.175Z,17.91
2018-09-02T20:01:27.263Z,18.03
2018-09-02T20:08:55.180Z,17.99
2018-09-02T20:11:23.278Z,18.15
2018-09-02T20:13:51.355Z,18.12
2018-09-02T20:16:19.448Z,17.98
2018-09-02T20:18:47.555Z,17.93
2018-09-02T20:21:15.631Z,17.89
2018-09-02T20:23:43.763Z,17.79
2018-09-02T20:26:11.895Z,17.81
2018-09-02T20:28:39.997Z,17.83
2018-09-02T20:31:08.112Z,17.81
2018-09-02T20:33:36.239Z,17.87
2018-09-02T20:36:04.351Z,17.82
2018-09-02T20:38:32.584Z,17.76
2018-09-02T20:41:00.760Z,17.67
2018-09-02T20:43:28.858Z,17.68
2018-09-02T20:45:56.952Z,17.72
2018-09-02T20:48:25.011Z,17.70
2018-09-02T20:50:53.123Z,17.56
2018-09-02T20:53:21.236Z,17.46
2018-09-02T20:55:49.345Z,17.42
2018-09-02T20:58:17.463Z,17.48
2018-09-02T21:00:45.538Z,17.47
2018-09-02T21:03:13.653Z,17.48
2018-09-02T21:05:41.839Z,17.41
2018-09-02T21:08:09.954Z,17.37
2018-09-02T21:10:38.082Z,17.38
2018-09-02T21:13:06.216Z,17.50
2018-09-02T21:15:34.355Z,17.57
2018-09-02T21:18:03.125Z,17.40
2018-09-02T21:20:31.235Z,17.33
2018-09-02T21:22:59.326Z,17.32
2018-09-02T21:25:27.451Z,17.29
2018-09-02T21:27:55.581Z,17.33
2018-09-02T21:30:23.709Z,17.37
2018-09-02T21:32:51.812Z,17.25
2018-09-02T21:35:19.965Z,17.17
2018-09-02T21:37:48.110Z,17.22
2018-09-02T21:40:16.325Z,17.15
2018-09-02T21:42:44.465Z,17.21
2018-09-02T21:45:12.579Z,17.02
2018-09-02T21:47:40.640Z,16.98
2018-09-02T21:50:09.165Z,17.05
2018-09-02T21:52:37.298Z,17.07
2018-09-02T21:55:05.566Z,17.11
2018-09-02T21:57:33.765Z,17.12
2018-09-02T22:00:02.055Z,17.25
2018-09-02T22:02:30.164Z,17.25
2018-09-02T22:04:58.371Z,17.17
2018-09-02T22:07:26.550Z,17.16
2018-09-02T22:09:54.660Z,17.25
2018-09-02T22:12:22.696Z,17.23
2018-09-02T22:14:50.777Z,17.17
2018-09-02T22:17:18.885Z,17.24
2018-09-02T22:19:46.973Z,17.28
2018-09-02T22:22:15.084Z,17.32
2018-09-02T22:24:43.187Z,17.33
2018-09-02T22:27:11.328Z,17.36
2018-09-02T22:29:39.450Z,17.30
2018-09-02T22:32:07.573Z,17.37
2018-09-02T22:34:35.719Z,17.50
2018-09-02T22:37:03.839Z,17.56
2018-09-02T22:39:31.962Z,17.47
2018-09-02T22:42:00.178Z,17.54
2018-09-02T22:44:28.187Z,17.50
2018-09-02T22:46:56.310Z,17.46
2018-09-02T22:49:24.464Z,17.41
2018-09-02T22:51:52.564Z,17.41
2018-09-02T22:54:20.939Z,17.44
2018-09-02T22:56:49.060Z,17.49
2018-09-02T22:59:17.136Z,17.44
2018-09-02T23:01:45.221Z,17.47
2018-09-02T23:04:13.393Z,17.47
2018-09-02T23:06:41.511Z,17.47
2018-09-02T23:09:09.710Z,17.47
2018-09-02T23:11:37.849Z,17.56
2018-09-02T23:14:05.961Z,17.59
2018-09-02T23:16:34.603Z,17.68
2018-09-02T23:19:03.169Z,17.65
2018-09-02T23:21:31.335Z,17.67
2018-09-02T23:23:59.435Z,17.71
2018-09-02T23:26:27.531Z,17.64
2018-09-02T23:28:55.649Z,17.61
2018-09-02T23:31:23.748Z,17.56
2018-09-02T23:33:52.583Z,17.68
2018-09-02T23:36:20.960Z,17.59
2018-09-02T23:38:49.065Z,17.57
2018-09-02T23:41:17.168Z,17.51
2018-09-02T23:43:45.356Z,17.63
2018-09-02T23:46:13.443Z,17.73
2018-09-02T23:48:41.586Z,17.70
2018-09-02T23:51:09.751Z,17.67
2018-09-02T23:53:37.925Z,17.63
2018-09-02T23:56:06.171Z,17.63
2018-09-02T23:58:34.365Z,17.67
